sensor_id;sensor_type;location;lat;lon;timestamp;P1;durP1;ratioP1;P2;durP2;ratioP2
11171;SDS011;5642;50.830;12.082;2022-12-18T00:01:29;5.97;;;4.10;;
11171;SDS011;5642;50.830;12.082;2022-12-18T00:04:02;7.30;;;4.80;;
11171;SDS011;5642;50.830;12.082;2022-12-18T00:06:34;6.00;;;4.13;;
11171;SDS011;5642;50.830;12.082;2022-12-18T00:09:03;5.70;;;4.40;;
11171;SDS011;5642;50.830;12.082;2022-12-18T00:11:30;4.37;;;3.57;;
11171;SDS011;5642;50.830;12.082;2022-12-18T00:14:03;6.57;;;4.23;;
11171;SDS011;5642;50.830;12.082;2022-12-18T00:16:31;6.30;;;4.43;;
11171;SDS011;5642;50.830;12.082;2022-12-18T00:19:03;5.43;;;4.27;;
11171;SDS011;5642;50.830;12.082;2022-12-18T00:21:30;6.23;;;4.33;;
11171;SDS011;5642;50.830;12.082;2022-12-18T00:24:00;5.43;;;4.07;;
11171;SDS011;5642;50.830;12.082;2022-12-18T00:26:28;5.87;;;4.20;;
11171;SDS011;5642;50.830;12.082;2022-12-18T00:29:01;5.97;;;3.80;;
11171;SDS011;5642;50.830;12.082;2022-12-18T00:31:41;6.57;;;3.93;;
11171;SDS011;5642;50.830;12.082;2022-12-18T00:34:11;4.93;;;3.80;;
11171;SDS011;5642;50.830;12.082;2022-12-18T00:36:40;6.97;;;4.17;;
11171;SDS011;5642;50.830;12.082;2022-12-18T00:39:18;6.10;;;3.87;;
11171;SDS011;5642;50.830;12.082;2022-12-18T00:41:45;6.57;;;4.43;;
11171;SDS011;5642;50.830;12.082;2022-12-18T00:44:31;5.70;;;4.03;;
11171;SDS011;5642;50.830;12.082;2022-12-18T00:47:01;5.83;;;4.00;;
11171;SDS011;5642;50.830;12.082;2022-12-18T00:49:28;5.83;;;4.40;;
11171;SDS011;5642;50.830;12.082;2022-12-18T00:51:56;6.30;;;4.30;;
11171;SDS011;5642;50.830;12.082;2022-12-18T00:54:23;5.67;;;4.17;;
11171;SDS011;5642;50.830;12.082;2022-12-18T00:56:49;6.50;;;4.00;;
11171;SDS011;5642;50.830;12.082;2022-12-18T00:59:17;4.83;;;3.80;;
11171;SDS011;5642;50.830;12.082;2022-12-18T01:01:45;6.23;;;3.80;;
11171;SDS011;5642;50.830;12.082;2022-12-18T01:04:15;6.13;;;4.00;;
11171;SDS011;5642;50.830;12.082;2022-12-18T01:06:42;4.60;;;3.43;;
11171;SDS011;5642;50.830;12.082;2022-12-18T01:09:09;5.90;;;3.93;;
11171;SDS011;5642;50.830;12.082;2022-12-18T01:11:36;6.00;;;3.80;;
11171;SDS011;5642;50.830;12.082;2022-12-18T01:14:05;6.17;;;4.20;;
11171;SDS011;5642;50.830;12.082;2022-12-18T01:16:33;4.90;;;3.87;;
11171;SDS011;5642;50.830;12.082;2022-12-18T01:19:01;4.67;;;3.77;;
11171;SDS011;5642;50.830;12.082;2022-12-18T01:21:29;6.13;;;4.10;;
11171;SDS011;5642;50.830;12.082;2022-12-18T01:23:56;5.30;;;3.50;;
11171;SDS011;5642;50.830;12.082;2022-12-18T01:26:24;5.80;;;3.83;;
11171;SDS011;5642;50.830;12.082;2022-12-18T01:28:55;5.93;;;3.87;;
11171;SDS011;5642;50.830;12.082;2022-12-18T01:31:25;4.60;;;3.60;;
11171;SDS011;5642;50.830;12.082;2022-12-18T01:33:53;5.07;;;3.83;;
11171;SDS011;5642;50.830;12.082;2022-12-18T01:36:25;4.33;;;3.33;;
11171;SDS011;5642;50.830;12.082;2022-12-18T01:39:01;6.90;;;3.77;;
11171;SDS011;5642;50.830;12.082;2022-12-18T01:41:32;5.07;;;3.70;;
11171;SDS011;5642;50.830;12.082;2022-12-18T01:50:39;4.70;;;3.33;;
11171;SDS011;5642;50.830;12.082;2022-12-18T01:53:14;4.63;;;3.50;;
11171;SDS011;5642;50.830;12.082;2022-12-18T01:55:53;5.77;;;3.67;;
11171;SDS011;5642;50.830;12.082;2022-12-18T02:01:10;6.00;;;3.63;;
11171;SDS011;5642;50.830;12.082;2022-12-18T02:03:37;4.67;;;3.53;;
11171;SDS011;5642;50.830;12.082;2022-12-18T02:13:55;4.77;;;3.37;;
11171;SDS011;5642;50.830;12.082;2022-12-18T02:23:12;4.23;;;3.40;;
11171;SDS011;5642;50.830;12.082;2022-12-18T02:29:01;4.07;;;3.10;;
11171;SDS011;5642;50.830;12.082;2022-12-18T02:31:35;4.67;;;3.17;;
11171;SDS011;5642;50.830;12.082;2022-12-18T02:34:07;4.97;;;3.17;;
11171;SDS011;5642;50.830;12.082;2022-12-18T02:36:38;4.93;;;3.40;;
11171;SDS011;5642;50.830;12.082;2022-12-18T02:39:09;5.30;;;3.60;;
11171;SDS011;5642;50.830;12.082;2022-12-18T02:53:27;4.50;;;2.93;;
11171;SDS011;5642;50.830;12.082;2022-12-18T03:01:04;4.33;;;2.70;;
11171;SDS011;5642;50.830;12.082;2022-12-18T03:18:37;4.37;;;2.57;;
11171;SDS011;5642;50.830;12.082;2022-12-18T03:28:17;3.63;;;2.70;;
11171;SDS011;5642;50.830;12.082;2022-12-18T03:37:48;2.87;;;2.53;;
11171;SDS011;5642;50.830;12.082;2022-12-18T03:50:57;3.10;;;2.50;;
11171;SDS011;5642;50.830;12.082;2022-12-18T03:54:05;4.03;;;2.80;;
11171;SDS011;5642;50.830;12.082;2022-12-18T04:04:40;2.93;;;2.33;;
11171;SDS011;5642;50.830;12.082;2022-12-18T04:12:15;2.90;;;2.30;;
11171;SDS011;5642;50.830;12.082;2022-12-18T04:15:00;3.57;;;2.30;;
11171;SDS011;5642;50.830;12.082;2022-12-18T04:17:38;2.43;;;2.10;;
11171;SDS011;5642;50.830;12.082;2022-12-18T04:34:07;3.73;;;2.33;;
11171;SDS011;5642;50.830;12.082;2022-12-18T04:36:37;2.67;;;2.10;;
11171;SDS011;5642;50.830;12.082;2022-12-18T04:43:00;3.80;;;2.57;;
11171;SDS011;5642;50.830;12.082;2022-12-18T04:45:32;3.27;;;2.50;;
11171;SDS011;5642;50.830;12.082;2022-12-18T04:48:02;3.30;;;2.67;;
11171;SDS011;5642;50.830;12.082;2022-12-18T04:50:40;3.77;;;2.73;;
11171;SDS011;5642;50.830;12.082;2022-12-18T04:53:07;3.03;;;2.33;;
11171;SDS011;5642;50.830;12.082;2022-12-18T04:55:35;3.87;;;2.63;;
11171;SDS011;5642;50.830;12.082;2022-12-18T04:58:02;3.70;;;2.37;;
11171;SDS011;5642;50.830;12.082;2022-12-18T05:00:29;4.73;;;2.77;;
11171;SDS011;5642;50.830;12.082;2022-12-18T05:03:00;4.00;;;2.37;;
11171;SDS011;5642;50.830;12.082;2022-12-18T05:05:28;3.07;;;2.30;;
11171;SDS011;5642;50.830;12.082;2022-12-18T05:07:55;3.60;;;2.77;;
11171;SDS011;5642;50.830;12.082;2022-12-18T05:10:22;4.43;;;2.70;;
11171;SDS011;5642;50.830;12.082;2022-12-18T05:12:49;4.30;;;2.50;;
11171;SDS011;5642;50.830;12.082;2022-12-18T05:15:29;2.73;;;2.43;;
11171;SDS011;5642;50.830;12.082;2022-12-18T05:17:58;3.83;;;2.60;;
11171;SDS011;5642;50.830;12.082;2022-12-18T05:20:27;3.33;;;2.50;;
11171;SDS011;5642;50.830;12.082;2022-12-18T05:22:55;2.80;;;2.33;;
11171;SDS011;5642;50.830;12.082;2022-12-18T05:25:22;3.00;;;2.20;;
11171;SDS011;5642;50.830;12.082;2022-12-18T05:27:50;2.43;;;2.23;;
11171;SDS011;5642;50.830;12.082;2022-12-18T05:30:19;3.93;;;2.80;;
11171;SDS011;5642;50.830;12.082;2022-12-18T05:32:49;4.00;;;2.40;;
11171;SDS011;5642;50.830;12.082;2022-12-18T05:35:17;3.17;;;2.43;;
11171;SDS011;5642;50.830;12.082;2022-12-18T05:37:44;3.70;;;2.80;;
11171;SDS011;5642;50.830;12.082;2022-12-18T05:40:29;3.50;;;2.60;;
11171;SDS011;5642;50.830;12.082;2022-12-18T05:42:56;2.83;;;2.50;;
11171;SDS011;5642;50.830;12.082;2022-12-18T05:45:24;3.27;;;2.47;;
11171;SDS011;5642;50.830;12.082;2022-12-18T05:47:51;2.77;;;2.40;;
11171;SDS011;5642;50.830;12.082;2022-12-18T05:50:17;2.93;;;2.27;;
11171;SDS011;5642;50.830;12.082;2022-12-18T05:52:44;3.37;;;2.37;;
11171;SDS011;5642;50.830;12.082;2022-12-18T05:55:11;2.30;;;2.10;;
11171;SDS011;5642;50.830;12.082;2022-12-18T05:57:38;3.00;;;2.20;;
11171;SDS011;5642;50.830;12.082;2022-12-18T06:00:07;3.10;;;2.63;;
11171;SDS011;5642;50.830;12.082;2022-12-18T06:02:35;3.00;;;2.50;;
11171;SDS011;5642;50.830;12.082;2022-12-18T06:05:03;2.90;;;2.13;;
11171;SDS011;5642;50.830;12.082;2022-12-18T06:07:31;2.90;;;2.40;;
11171;SDS011;5642;50.830;12.082;2022-12-18T06:09:59;2.77;;;2.07;;
11171;SDS011;5642;50.830;12.082;2022-12-18T06:12:29;2.77;;;2.43;;
11171;SDS011;5642;50.830;12.082;2022-12-18T06:14:56;2.63;;;2.23;;
11171;SDS011;5642;50.830;12.082;2022-12-18T06:17:27;3.30;;;2.50;;
11171;SDS011;5642;50.830;12.082;2022-12-18T06:19:58;2.77;;;2.43;;
11171;SDS011;5642;50.830;12.082;2022-12-18T06:22:38;3.17;;;2.60;;
11171;SDS011;5642;50.830;12.082;2022-12-18T06:25:05;3.87;;;2.43;;
11171;SDS011;5642;50.830;12.082;2022-12-18T06:27:33;2.60;;;2.40;;
11171;SDS011;5642;50.830;12.082;2022-12-18T06:30:01;2.97;;;2.47;;
11171;SDS011;5642;50.830;12.082;2022-12-18T06:32:28;3.20;;;2.50;;
11171;SDS011;5642;50.830;12.082;2022-12-18T06:34:54;2.77;;;2.13;;
11171;SDS011;5642;50.830;12.082;2022-12-18T06:37:22;2.57;;;2.17;;
11171;SDS011;5642;50.830;12.082;2022-12-18T06:39:56;3.00;;;2.50;;
11171;SDS011;5642;50.830;12.082;2022-12-18T06:42:24;2.97;;;2.20;;
11171;SDS011;5642;50.830;12.082;2022-12-18T06:45:09;2.80;;;2.07;;
11171;SDS011;5642;50.830;12.082;2022-12-18T06:47:36;3.30;;;2.60;;
11171;SDS011;5642;50.830;12.082;2022-12-18T06:50:04;2.73;;;2.23;;
11171;SDS011;5642;50.830;12.082;2022-12-18T06:52:32;4.27;;;2.20;;
11171;SDS011;5642;50.830;12.082;2022-12-18T06:55:02;4.27;;;2.43;;
11171;SDS011;5642;50.830;12.082;2022-12-18T06:57:29;2.77;;;2.07;;
11171;SDS011;5642;50.830;12.082;2022-12-18T06:59:59;2.97;;;2.43;;
11171;SDS011;5642;50.830;12.082;2022-12-18T07:02:27;3.80;;;2.63;;
11171;SDS011;5642;50.830;12.082;2022-12-18T07:04:55;3.30;;;2.40;;
11171;SDS011;5642;50.830;12.082;2022-12-18T07:07:39;3.03;;;2.37;;
11171;SDS011;5642;50.830;12.082;2022-12-18T07:10:07;3.37;;;2.33;;
11171;SDS011;5642;50.830;12.082;2022-12-18T07:12:34;3.70;;;2.67;;
11171;SDS011;5642;50.830;12.082;2022-12-18T07:15:05;4.00;;;2.77;;
11171;SDS011;5642;50.830;12.082;2022-12-18T07:17:34;3.00;;;2.37;;
11171;SDS011;5642;50.830;12.082;2022-12-18T07:20:00;3.67;;;2.30;;
11171;SDS011;5642;50.830;12.082;2022-12-18T07:22:32;5.10;;;2.67;;
11171;SDS011;5642;50.830;12.082;2022-12-18T07:24:58;3.33;;;2.63;;
11171;SDS011;5642;50.830;12.082;2022-12-18T07:27:27;5.77;;;3.73;;
11171;SDS011;5642;50.830;12.082;2022-12-18T07:29:54;5.03;;;3.73;;
11171;SDS011;5642;50.830;12.082;2022-12-18T07:32:22;9.43;;;5.23;;
11171;SDS011;5642;50.830;12.082;2022-12-18T07:34:51;5.90;;;4.43;;
11171;SDS011;5642;50.830;12.082;2022-12-18T07:37:17;5.73;;;3.70;;
11171;SDS011;5642;50.830;12.082;2022-12-18T07:39:43;4.40;;;3.10;;
11171;SDS011;5642;50.830;12.082;2022-12-18T07:42:30;4.30;;;3.27;;
11171;SDS011;5642;50.830;12.082;2022-12-18T07:44:59;5.93;;;3.93;;
11171;SDS011;5642;50.830;12.082;2022-12-18T07:47:28;6.20;;;4.23;;
11171;SDS011;5642;50.830;12.082;2022-12-18T07:49:55;5.87;;;3.93;;
11171;SDS011;5642;50.830;12.082;2022-12-18T07:52:23;5.47;;;3.83;;
11171;SDS011;5642;50.830;12.082;2022-12-18T07:55:02;6.07;;;3.27;;
11171;SDS011;5642;50.830;12.082;2022-12-18T07:57:29;5.37;;;3.37;;
11171;SDS011;5642;50.830;12.082;2022-12-18T07:59:57;4.43;;;3.10;;
11171;SDS011;5642;50.830;12.082;2022-12-18T08:02:24;4.03;;;3.10;;
11171;SDS011;5642;50.830;12.082;2022-12-18T08:04:51;4.10;;;3.23;;
11171;SDS011;5642;50.830;12.082;2022-12-18T08:07:18;3.37;;;2.83;;
11171;SDS011;5642;50.830;12.082;2022-12-18T08:09:44;4.67;;;3.17;;
11171;SDS011;5642;50.830;12.082;2022-12-18T08:12:11;4.90;;;3.07;;
11171;SDS011;5642;50.830;12.082;2022-12-18T08:14:38;4.40;;;3.00;;
11171;SDS011;5642;50.830;12.082;2022-12-18T08:17:05;4.27;;;3.10;;
11171;SDS011;5642;50.830;12.082;2022-12-18T08:19:33;4.53;;;2.80;;
11171;SDS011;5642;50.830;12.082;2022-12-18T08:21:59;4.20;;;2.80;;
11171;SDS011;5642;50.830;12.082;2022-12-18T08:24:26;5.03;;;2.80;;
11171;SDS011;5642;50.830;12.082;2022-12-18T08:26:55;4.20;;;2.90;;
11171;SDS011;5642;50.830;12.082;2022-12-18T08:29:23;4.43;;;3.23;;
11171;SDS011;5642;50.830;12.082;2022-12-18T08:31:50;4.30;;;3.27;;
11171;SDS011;5642;50.830;12.082;2022-12-18T08:34:18;5.80;;;3.27;;
11171;SDS011;5642;50.830;12.082;2022-12-18T08:36:45;4.57;;;3.47;;
11171;SDS011;5642;50.830;12.082;2022-12-18T08:39:22;4.10;;;3.23;;
11171;SDS011;5642;50.830;12.082;2022-12-18T08:41:49;6.20;;;3.67;;
11171;SDS011;5642;50.830;12.082;2022-12-18T08:44:35;5.33;;;3.37;;
11171;SDS011;5642;50.830;12.082;2022-12-18T08:47:07;3.87;;;3.33;;
11171;SDS011;5642;50.830;12.082;2022-12-18T08:49:37;4.90;;;3.37;;
11171;SDS011;5642;50.830;12.082;2022-12-18T08:52:04;3.83;;;3.23;;
11171;SDS011;5642;50.830;12.082;2022-12-18T08:54:35;4.10;;;3.27;;
11171;SDS011;5642;50.830;12.082;2022-12-18T08:57:07;4.73;;;3.30;;
11171;SDS011;5642;50.830;12.082;2022-12-18T08:59:36;4.27;;;3.03;;
11171;SDS011;5642;50.830;12.082;2022-12-18T09:02:03;3.80;;;3.10;;
11171;SDS011;5642;50.830;12.082;2022-12-18T09:04:30;4.57;;;3.50;;
11171;SDS011;5642;50.830;12.082;2022-12-18T09:06:56;4.17;;;2.90;;
11171;SDS011;5642;50.830;12.082;2022-12-18T09:09:22;4.30;;;3.07;;
11171;SDS011;5642;50.830;12.082;2022-12-18T09:11:48;3.73;;;3.10;;
11171;SDS011;5642;50.830;12.082;2022-12-18T09:14:14;3.27;;;2.80;;
11171;SDS011;5642;50.830;12.082;2022-12-18T09:16:43;5.03;;;3.20;;
11171;SDS011;5642;50.830;12.082;2022-12-18T09:19:10;3.73;;;3.00;;
11171;SDS011;5642;50.830;12.082;2022-12-18T09:21:40;4.93;;;3.20;;
11171;SDS011;5642;50.830;12.082;2022-12-18T09:24:08;4.50;;;3.23;;
11171;SDS011;5642;50.830;12.082;2022-12-18T09:26:38;4.20;;;3.10;;
11171;SDS011;5642;50.830;12.082;2022-12-18T09:29:04;3.83;;;3.30;;
11171;SDS011;5642;50.830;12.082;2022-12-18T09:31:32;4.80;;;3.60;;
11171;SDS011;5642;50.830;12.082;2022-12-18T09:33:59;4.00;;;3.30;;
11171;SDS011;5642;50.830;12.082;2022-12-18T09:36:25;4.37;;;3.40;;
11171;SDS011;5642;50.830;12.082;2022-12-18T09:38:52;4.37;;;3.50;;
11171;SDS011;5642;50.830;12.082;2022-12-18T09:49:39;4.43;;;3.50;;
11171;SDS011;5642;50.830;12.082;2022-12-18T09:52:09;4.50;;;3.00;;
11171;SDS011;5642;50.830;12.082;2022-12-18T09:54:41;5.37;;;3.00;;
11171;SDS011;5642;50.830;12.082;2022-12-18T09:57:13;4.07;;;3.17;;
11171;SDS011;5642;50.830;12.082;2022-12-18T09:59:41;4.17;;;3.23;;
11171;SDS011;5642;50.830;12.082;2022-12-18T10:02:29;4.43;;;3.10;;
11171;SDS011;5642;50.830;12.082;2022-12-18T10:07:59;3.97;;;3.30;;
11171;SDS011;5642;50.830;12.082;2022-12-18T10:13:07;5.20;;;3.83;;
11171;SDS011;5642;50.830;12.082;2022-12-18T10:21:10;3.93;;;3.53;;
11171;SDS011;5642;50.830;12.082;2022-12-18T10:24:44;5.30;;;3.60;;
11171;SDS011;5642;50.830;12.082;2022-12-18T10:26:41;4.67;;;3.50;;
11171;SDS011;5642;50.830;12.082;2022-12-18T10:29:13;3.40;;;2.87;;
11171;SDS011;5642;50.830;12.082;2022-12-18T10:31:59;3.97;;;3.07;;
11171;SDS011;5642;50.830;12.082;2022-12-18T10:34:28;4.53;;;3.30;;
11171;SDS011;5642;50.830;12.082;2022-12-18T10:36:54;4.33;;;3.43;;
11171;SDS011;5642;50.830;12.082;2022-12-18T10:39:22;3.83;;;3.38;;
11171;SDS011;5642;50.830;12.082;2022-12-18T10:41:51;3.80;;;3.30;;
11171;SDS011;5642;50.830;12.082;2022-12-18T10:44:34;4.78;;;3.55;;
11171;SDS011;5642;50.830;12.082;2022-12-18T10:47:05;5.18;;;3.70;;
11171;SDS011;5642;50.830;12.082;2022-12-18T10:49:37;3.40;;;3.10;;
11171;SDS011;5642;50.830;12.082;2022-12-18T10:52:17;3.80;;;3.40;;
11171;SDS011;5642;50.830;12.082;2022-12-18T10:55:02;6.47;;;3.88;;
11171;SDS011;5642;50.830;12.082;2022-12-18T10:57:36;3.88;;;3.42;;
11171;SDS011;5642;50.830;12.082;2022-12-18T11:00:24;5.45;;;3.30;;
11171;SDS011;5642;50.830;12.082;2022-12-18T11:02:55;4.10;;;3.28;;
11171;SDS011;5642;50.830;12.082;2022-12-18T11:05:32;4.32;;;3.92;;
11171;SDS011;5642;50.830;12.082;2022-12-18T11:08:00;4.20;;;3.72;;
11171;SDS011;5642;50.830;12.082;2022-12-18T11:10:31;3.78;;;3.38;;
11171;SDS011;5642;50.830;12.082;2022-12-18T11:15:48;4.07;;;3.45;;
11171;SDS011;5642;50.830;12.082;2022-12-18T11:18:44;3.97;;;3.55;;
11171;SDS011;5642;50.830;12.082;2022-12-18T11:21:11;4.00;;;3.60;;
11171;SDS011;5642;50.830;12.082;2022-12-18T11:23:52;4.00;;;3.53;;
11171;SDS011;5642;50.830;12.082;2022-12-18T11:26:19;3.50;;;3.17;;
11171;SDS011;5642;50.830;12.082;2022-12-18T11:28:49;3.80;;;3.45;;
11171;SDS011;5642;50.830;12.082;2022-12-18T11:31:22;3.53;;;3.22;;
11171;SDS011;5642;50.830;12.082;2022-12-18T11:34:01;3.55;;;3.25;;
11171;SDS011;5642;50.830;12.082;2022-12-18T11:36:38;3.75;;;3.45;;
11171;SDS011;5642;50.830;12.082;2022-12-18T11:41:53;3.58;;;3.10;;
11171;SDS011;5642;50.830;12.082;2022-12-18T11:44:51;4.63;;;3.33;;
11171;SDS011;5642;50.830;12.082;2022-12-18T11:50:19;3.70;;;3.35;;
11171;SDS011;5642;50.830;12.082;2022-12-18T11:52:51;4.53;;;3.55;;
11171;SDS011;5642;50.830;12.082;2022-12-18T12:24:51;3.77;;;3.40;;
11171;SDS011;5642;50.830;12.082;2022-12-18T12:30:40;3.92;;;3.10;;
11171;SDS011;5642;50.830;12.082;2022-12-18T12:38:53;4.88;;;3.95;;
11171;SDS011;5642;50.830;12.082;2022-12-18T12:41:32;4.65;;;3.75;;
11171;SDS011;5642;50.830;12.082;2022-12-18T12:44:24;4.37;;;3.60;;
11171;SDS011;5642;50.830;12.082;2022-12-18T12:46:56;3.87;;;3.40;;
11171;SDS011;5642;50.830;12.082;2022-12-18T12:49:27;4.07;;;3.20;;
11171;SDS011;5642;50.830;12.082;2022-12-18T12:52:04;3.90;;;3.50;;
11171;SDS011;5642;50.830;12.082;2022-12-18T12:54:36;3.78;;;3.42;;
11171;SDS011;5642;50.830;12.082;2022-12-18T12:57:11;4.30;;;3.50;;
11171;SDS011;5642;50.830;12.082;2022-12-18T13:05:06;4.23;;;3.57;;
11171;SDS011;5642;50.830;12.082;2022-12-18T13:07:49;4.25;;;3.80;;
11171;SDS011;5642;50.830;12.082;2022-12-18T13:10:24;4.13;;;3.73;;
11171;SDS011;5642;50.830;12.082;2022-12-18T13:15:26;3.77;;;3.37;;
11171;SDS011;5642;50.830;12.082;2022-12-18T13:25:51;3.77;;;3.17;;
11171;SDS011;5642;50.830;12.082;2022-12-18T13:29:07;4.90;;;3.10;;
11171;SDS011;5642;50.830;12.082;2022-12-18T13:31:15;3.72;;;3.00;;
11171;SDS011;5642;50.830;12.082;2022-12-18T13:34:16;3.70;;;3.10;;
11171;SDS011;5642;50.830;12.082;2022-12-18T13:36:44;3.10;;;2.73;;
11171;SDS011;5642;50.830;12.082;2022-12-18T13:41:40;3.00;;;2.43;;
11171;SDS011;5642;50.830;12.082;2022-12-18T13:44:11;3.00;;;2.50;;
11171;SDS011;5642;50.830;12.082;2022-12-18T13:46:57;3.10;;;2.60;;
11171;SDS011;5642;50.830;12.082;2022-12-18T13:52:21;4.50;;;3.97;;
11171;SDS011;5642;50.830;12.082;2022-12-18T13:54:52;4.37;;;3.87;;
11171;SDS011;5642;50.830;12.082;2022-12-18T13:57:32;6.00;;;4.20;;
11171;SDS011;5642;50.830;12.082;2022-12-18T14:02:49;8.40;;;6.53;;
11171;SDS011;5642;50.830;12.082;2022-12-18T14:07:58;7.80;;;6.07;;
11171;SDS011;5642;50.830;12.082;2022-12-18T14:10:28;9.20;;;5.93;;
11171;SDS011;5642;50.830;12.082;2022-12-18T14:12:55;8.20;;;6.00;;
11171;SDS011;5642;50.830;12.082;2022-12-18T14:18:02;8.40;;;6.47;;
11171;SDS011;5642;50.830;12.082;2022-12-18T14:20:43;7.60;;;6.23;;
11171;SDS011;5642;50.830;12.082;2022-12-18T14:25:57;8.37;;;6.03;;
11171;SDS011;5642;50.830;12.082;2022-12-18T14:28:24;9.00;;;6.67;;
11171;SDS011;5642;50.830;12.082;2022-12-18T14:30:51;8.27;;;6.83;;
11171;SDS011;5642;50.830;12.082;2022-12-18T14:33:20;8.33;;;6.47;;
11171;SDS011;5642;50.830;12.082;2022-12-18T14:36:13;8.00;;;6.30;;
11171;SDS011;5642;50.830;12.082;2022-12-18T14:38:40;6.70;;;5.60;;
11171;SDS011;5642;50.830;12.082;2022-12-18T14:41:11;6.57;;;5.63;;
11171;SDS011;5642;50.830;12.082;2022-12-18T14:43:48;6.87;;;5.53;;
11171;SDS011;5642;50.830;12.082;2022-12-18T14:51:55;9.13;;;6.50;;
11171;SDS011;5642;50.830;12.082;2022-12-18T14:54:27;9.33;;;6.27;;
11171;SDS011;5642;50.830;12.082;2022-12-18T14:59:29;12.50;;;8.80;;
11171;SDS011;5642;50.830;12.082;2022-12-18T15:04:31;15.17;;;11.03;;
11171;SDS011;5642;50.830;12.082;2022-12-18T15:09:32;15.63;;;10.30;;
11171;SDS011;5642;50.830;12.082;2022-12-18T15:12:03;16.13;;;10.50;;
11171;SDS011;5642;50.830;12.082;2022-12-18T15:14:42;12.50;;;8.47;;
11171;SDS011;5642;50.830;12.082;2022-12-18T15:17:27;10.50;;;7.47;;
11171;SDS011;5642;50.830;12.082;2022-12-18T15:20:09;7.83;;;5.80;;
11171;SDS011;5642;50.830;12.082;2022-12-18T15:22:46;7.43;;;5.47;;
11171;SDS011;5642;50.830;12.082;2022-12-18T15:25:29;7.00;;;5.30;;
11171;SDS011;5642;50.830;12.082;2022-12-18T15:28:00;9.13;;;6.37;;
11171;SDS011;5642;50.830;12.082;2022-12-18T15:30:28;10.13;;;7.13;;
11171;SDS011;5642;50.830;12.082;2022-12-18T15:35:58;8.80;;;6.07;;
11171;SDS011;5642;50.830;12.082;2022-12-18T15:38:31;11.70;;;6.90;;
11171;SDS011;5642;50.830;12.082;2022-12-18T15:41:05;12.30;;;6.90;;
11171;SDS011;5642;50.830;12.082;2022-12-18T15:43:37;11.33;;;7.63;;
11171;SDS011;5642;50.830;12.082;2022-12-18T15:46:04;11.03;;;7.20;;
11171;SDS011;5642;50.830;12.082;2022-12-18T15:48:41;9.77;;;6.60;;
11171;SDS011;5642;50.830;12.082;2022-12-18T15:51:12;8.93;;;6.33;;
11171;SDS011;5642;50.830;12.082;2022-12-18T15:53:47;9.23;;;5.50;;
11171;SDS011;5642;50.830;12.082;2022-12-18T15:56:20;9.13;;;5.43;;
11171;SDS011;5642;50.830;12.082;2022-12-18T15:59:23;7.53;;;5.33;;
11171;SDS011;5642;50.830;12.082;2022-12-18T16:01:50;7.77;;;5.70;;
11171;SDS011;5642;50.830;12.082;2022-12-18T16:04:18;6.50;;;5.40;;
11171;SDS011;5642;50.830;12.082;2022-12-18T16:06:46;6.70;;;5.07;;
11171;SDS011;5642;50.830;12.082;2022-12-18T16:09:16;7.27;;;5.07;;
11171;SDS011;5642;50.830;12.082;2022-12-18T16:11:43;8.50;;;6.00;;
11171;SDS011;5642;50.830;12.082;2022-12-18T16:14:22;10.20;;;6.43;;
11171;SDS011;5642;50.830;12.082;2022-12-18T16:16:57;8.60;;;5.87;;
11171;SDS011;5642;50.830;12.082;2022-12-18T16:19:32;11.43;;;7.60;;
11171;SDS011;5642;50.830;12.082;2022-12-18T16:21:59;10.53;;;7.20;;
11171;SDS011;5642;50.830;12.082;2022-12-18T16:24:31;11.87;;;8.60;;
11171;SDS011;5642;50.830;12.082;2022-12-18T16:27:05;12.83;;;7.97;;
11171;SDS011;5642;50.830;12.082;2022-12-18T16:29:40;12.00;;;7.93;;
11171;SDS011;5642;50.830;12.082;2022-12-18T16:32:09;11.00;;;7.23;;
11171;SDS011;5642;50.830;12.082;2022-12-18T16:34:41;9.07;;;6.67;;
11171;SDS011;5642;50.830;12.082;2022-12-18T16:37:27;8.67;;;5.77;;
11171;SDS011;5642;50.830;12.082;2022-12-18T16:40:04;7.53;;;5.23;;
11171;SDS011;5642;50.830;12.082;2022-12-18T16:42:40;8.90;;;5.40;;
11171;SDS011;5642;50.830;12.082;2022-12-18T16:45:18;6.20;;;4.37;;
11171;SDS011;5642;50.830;12.082;2022-12-18T16:47:58;5.40;;;3.80;;
11171;SDS011;5642;50.830;12.082;2022-12-18T16:50:27;6.50;;;4.27;;
11171;SDS011;5642;50.830;12.082;2022-12-18T16:52:53;5.63;;;4.00;;
11171;SDS011;5642;50.830;12.082;2022-12-18T16:55:20;4.47;;;3.30;;
11171;SDS011;5642;50.830;12.082;2022-12-18T16:57:47;4.93;;;3.57;;
11171;SDS011;5642;50.830;12.082;2022-12-18T17:00:18;4.47;;;3.37;;
11171;SDS011;5642;50.830;12.082;2022-12-18T17:02:46;3.97;;;3.03;;
11171;SDS011;5642;50.830;12.082;2022-12-18T17:05:15;3.47;;;3.00;;
11171;SDS011;5642;50.830;12.082;2022-12-18T17:07:42;3.60;;;2.60;;
11171;SDS011;5642;50.830;12.082;2022-12-18T17:10:08;3.70;;;2.90;;
11171;SDS011;5642;50.830;12.082;2022-12-18T17:12:38;3.30;;;2.73;;
11171;SDS011;5642;50.830;12.082;2022-12-18T17:15:08;2.73;;;2.43;;
11171;SDS011;5642;50.830;12.082;2022-12-18T17:17:36;3.53;;;2.60;;
11171;SDS011;5642;50.830;12.082;2022-12-18T17:20:03;4.00;;;3.07;;
11171;SDS011;5642;50.830;12.082;2022-12-18T17:22:38;3.57;;;2.97;;
11171;SDS011;5642;50.830;12.082;2022-12-18T17:25:04;4.10;;;3.10;;
11171;SDS011;5642;50.830;12.082;2022-12-18T17:27:35;3.97;;;3.03;;
11171;SDS011;5642;50.830;12.082;2022-12-18T17:30:01;4.50;;;2.97;;
11171;SDS011;5642;50.830;12.082;2022-12-18T17:32:31;4.27;;;3.40;;
11171;SDS011;5642;50.830;12.082;2022-12-18T17:35:03;3.90;;;3.00;;
11171;SDS011;5642;50.830;12.082;2022-12-18T17:37:38;4.10;;;3.40;;
11171;SDS011;5642;50.830;12.082;2022-12-18T17:40:15;4.03;;;2.90;;
11171;SDS011;5642;50.830;12.082;2022-12-18T17:42:45;3.70;;;3.27;;
11171;SDS011;5642;50.830;12.082;2022-12-18T17:45:13;3.93;;;3.10;;
11171;SDS011;5642;50.830;12.082;2022-12-18T17:47:40;3.53;;;2.80;;
11171;SDS011;5642;50.830;12.082;2022-12-18T17:50:08;3.73;;;2.90;;
11171;SDS011;5642;50.830;12.082;2022-12-18T17:52:40;3.60;;;2.70;;
11171;SDS011;5642;50.830;12.082;2022-12-18T17:55:09;3.60;;;2.90;;
11171;SDS011;5642;50.830;12.082;2022-12-18T17:57:36;3.37;;;2.73;;
11171;SDS011;5642;50.830;12.082;2022-12-18T18:00:03;5.17;;;3.03;;
11171;SDS011;5642;50.830;12.082;2022-12-18T18:02:32;3.70;;;2.70;;
11171;SDS011;5642;50.830;12.082;2022-12-18T18:04:58;3.33;;;2.67;;
11171;SDS011;5642;50.830;12.082;2022-12-18T18:07:24;2.87;;;2.57;;
11171;SDS011;5642;50.830;12.082;2022-12-18T18:09:51;2.90;;;2.60;;
11171;SDS011;5642;50.830;12.082;2022-12-18T18:12:17;2.73;;;2.30;;
11171;SDS011;5642;50.830;12.082;2022-12-18T18:15:02;2.70;;;2.40;;
11171;SDS011;5642;50.830;12.082;2022-12-18T18:17:29;3.37;;;2.80;;
11171;SDS011;5642;50.830;12.082;2022-12-18T18:19:55;2.67;;;2.40;;
11171;SDS011;5642;50.830;12.082;2022-12-18T18:22:21;3.30;;;2.70;;
11171;SDS011;5642;50.830;12.082;2022-12-18T18:24:49;2.97;;;2.47;;
11171;SDS011;5642;50.830;12.082;2022-12-18T18:27:15;2.53;;;2.33;;
11171;SDS011;5642;50.830;12.082;2022-12-18T18:29:42;3.80;;;3.00;;
11171;SDS011;5642;50.830;12.082;2022-12-18T18:32:08;3.10;;;2.60;;
11171;SDS011;5642;50.830;12.082;2022-12-18T18:34:34;4.03;;;3.00;;
11171;SDS011;5642;50.830;12.082;2022-12-18T18:37:00;3.33;;;2.47;;
11171;SDS011;5642;50.830;12.082;2022-12-18T18:39:27;3.30;;;2.73;;
11171;SDS011;5642;50.830;12.082;2022-12-18T18:41:54;3.00;;;2.53;;
11171;SDS011;5642;50.830;12.082;2022-12-18T18:44:20;2.60;;;2.40;;
11171;SDS011;5642;50.830;12.082;2022-12-18T18:46:47;4.00;;;2.93;;
11171;SDS011;5642;50.830;12.082;2022-12-18T18:49:13;5.33;;;3.13;;
11171;SDS011;5642;50.830;12.082;2022-12-18T18:51:40;2.97;;;2.60;;
11171;SDS011;5642;50.830;12.082;2022-12-18T18:54:06;3.67;;;2.70;;
11171;SDS011;5642;50.830;12.082;2022-12-18T18:56:33;2.97;;;2.60;;
11171;SDS011;5642;50.830;12.082;2022-12-18T18:58:59;4.03;;;2.63;;
11171;SDS011;5642;50.830;12.082;2022-12-18T19:01:28;3.33;;;2.43;;